Time;durP1;ratioP1;P1;durP2;ratioP2;P2;SDS_P1;SDS_P2;PMS_P1;PMS_P2;Temp;Humidity;BMP_temperature;BMP_pressure;BME280_temperature;BME280_humidity;BME280_pressure;Samples;Min_cycle;Max_cycle;Signal;HPM_P1;HPM_P2
2023/01/07 00:02:22;;;;;;;66.53;25.48;;;;;;;;;;5040270;28;20075;-75
2023/01/07 00:04:49;;;;;;;59.30;24.27;;;;;;;;;;5057039;28;20052;-75
2023/01/07 00:07:15;;;;;;;59.78;24.35;;;;;;;;;;5074804;28;20045;-75
2023/01/07 00:09:41;;;;;;;69.13;27.30;;;;;;;;;;5057138;28;20045;-75
2023/01/07 00:12:07;;;;;;;62.22;26.48;;;;;;;;;;5034936;28;20052;-75
2023/01/07 00:14:33;;;;;;;67.80;27.80;;;;;;;;;;5047600;28;20146;-75
2023/01/07 00:16:59;;;;;;;64.32;27.30;;;;;;;;;;5040597;28;20042;-75
2023/01/07 00:19:25;;;;;;;77.00;28.02;;;;;;;;;;5033069;28;20052;-75
2023/01/07 00:21:52;;;;;;;72.38;27.17;;;;;;;;;;5034799;28;20073;-75
2023/01/07 00:24:18;;;;;;;72.65;28.20;;;;;;;;;;5016801;28;20049;-75
2023/01/07 00:26:44;;;;;;;76.20;29.50;;;;;;;;;;5052409;28;20049;-75
2023/01/07 00:29:10;;;;;;;75.35;27.45;;;;;;;;;;5052646;28;20045;-75
2023/01/07 00:31:37;;;;;;;79.03;29.17;;;;;;;;;;5053292;28;20048;-75
2023/01/07 00:36:31;;;;;;;74.03;26.45;;;;;;;;;;5054095;28;20043;-75
2023/01/07 00:38:58;;;;;;;65.40;23.77;;;;;;;;;;5054133;28;20079;-75
2023/01/07 00:41:24;;;;;;;74.82;25.65;;;;;;;;;;5054216;28;20041;-75
2023/01/07 00:43:50;;;;;;;62.67;22.65;;;;;;;;;;5052075;28;20060;-75
2023/01/07 00:46:17;;;;;;;57.95;22.35;;;;;;;;;;5052935;28;20044;-75
2023/01/07 00:48:43;;;;;;;55.63;21.08;;;;;;;;;;5054270;28;20037;-75
2023/01/07 00:51:11;;;;;;;46.20;20.58;;;;;;;;;;5053775;28;20045;-75
2023/01/07 00:53:37;;;;;;;47.33;19.38;;;;;;;;;;5054028;28;20044;-75
2023/01/07 00:56:03;;;;;;;43.67;19.13;;;;;;;;;;5044154;28;20341;-75
2023/01/07 00:58:30;;;;;;;38.92;18.02;;;;;;;;;;5036848;28;20143;-75
2023/01/07 01:00:59;;;;;;;44.28;19.38;;;;;;;;;;5020847;28;20050;-75
2023/01/07 01:03:26;;;;;;;41.03;18.65;;;;;;;;;;5033940;28;20049;-75
2023/01/07 01:05:53;;;;;;;43.35;17.90;;;;;;;;;;5033797;28;20431;-75
2023/01/07 01:08:20;;;;;;;41.97;18.15;;;;;;;;;;5047698;28;20091;-75
2023/01/07 01:10:46;;;;;;;41.85;18.45;;;;;;;;;;5053386;28;20037;-75
2023/01/07 01:13:13;;;;;;;40.47;18.20;;;;;;;;;;5052075;28;20056;-75
2023/01/07 01:15:46;;;;;;;44.80;18.20;;;;;;;;;;5033506;28;20384;-75
2023/01/07 01:18:12;;;;;;;44.83;19.40;;;;;;;;;;5033818;28;20045;-75
2023/01/07 01:20:39;;;;;;;39.00;18.48;;;;;;;;;;5033674;28;20119;-75
2023/01/07 01:23:05;;;;;;;39.75;19.15;;;;;;;;;;5033814;28;20041;-75
2023/01/07 01:25:32;;;;;;;40.65;19.40;;;;;;;;;;5029898;28;20124;-75
2023/01/07 01:27:58;;;;;;;41.70;19.92;;;;;;;;;;5044696;28;20049;-75
2023/01/07 01:30:24;;;;;;;36.88;19.83;;;;;;;;;;5033418;28;20076;-75
2023/01/07 01:32:50;;;;;;;41.83;20.98;;;;;;;;;;5042039;28;20045;-75
2023/01/07 01:35:16;;;;;;;39.60;20.98;;;;;;;;;;5046578;28;20384;-75
2023/01/07 01:37:42;;;;;;;45.38;21.90;;;;;;;;;;5052542;28;20048;-76
2023/01/07 01:40:09;;;;;;;39.67;21.25;;;;;;;;;;5052354;28;20404;-76
2023/01/07 01:42:36;;;;;;;42.20;21.58;;;;;;;;;;5048782;28;20353;-76
2023/01/07 01:45:02;;;;;;;44.97;22.17;;;;;;;;;;5057880;28;20045;-76
2023/01/07 01:47:34;;;;;;;42.03;20.95;;;;;;;;;;5057755;28;20045;-76
2023/01/07 01:50:04;;;;;;;39.35;20.45;;;;;;;;;;5036532;28;20053;-76
2023/01/07 01:52:35;;;;;;;41.30;22.13;;;;;;;;;;5056914;28;20045;-76
2023/01/07 01:55:02;;;;;;;38.95;21.40;;;;;;;;;;5057270;28;20073;-76
2023/01/07 01:57:30;;;;;;;41.00;21.65;;;;;;;;;;5047950;28;20396;-76
2023/01/07 01:59:57;;;;;;;46.70;23.08;;;;;;;;;;5050682;28;20053;-76
2023/01/07 02:02:26;;;;;;;45.35;23.33;;;;;;;;;;5056947;28;20387;-76
2023/01/07 02:04:54;;;;;;;40.40;22.23;;;;;;;;;;5055606;28;20032;-76
2023/01/07 02:07:20;;;;;;;44.88;24.30;;;;;;;;;;5039523;28;20049;-76
2023/01/07 02:09:50;;;;;;;41.83;23.10;;;;;;;;;;5045167;28;20414;-76
2023/01/07 02:12:22;;;;;;;42.90;23.67;;;;;;;;;;5060140;28;20061;-76
2023/01/07 02:15:06;;;;;;;44.47;23.13;;;;;;;;;;5050285;28;20033;-76
2023/01/07 02:17:42;;;;;;;37.25;22.38;;;;;;;;;;5056890;28;20471;-76
2023/01/07 02:20:08;;;;;;;38.40;22.90;;;;;;;;;;5056812;28;20048;-76
2023/01/07 02:22:40;;;;;;;34.42;21.92;;;;;;;;;;5056011;28;20052;-76
2023/01/07 02:25:12;;;;;;;37.05;22.63;;;;;;;;;;5056759;28;20112;-76
2023/01/07 02:27:57;;;;;;;39.55;23.55;;;;;;;;;;5047470;28;20496;-76
2023/01/07 02:30:26;;;;;;;37.83;23.08;;;;;;;;;;5037000;28;20053;-76
2023/01/07 02:33:12;;;;;;;37.85;23.42;;;;;;;;;;5036636;28;20042;-76
2023/01/07 02:35:53;;;;;;;41.28;24.75;;;;;;;;;;5036847;28;20045;-76
2023/01/07 02:38:25;;;;;;;36.30;22.80;;;;;;;;;;5051619;28;20514;-76
2023/01/07 02:41:01;;;;;;;36.10;23.40;;;;;;;;;;5056534;28;20041;-76
2023/01/07 02:43:27;;;;;;;34.42;22.77;;;;;;;;;;5056143;28;20045;-76
2023/01/07 02:46:13;;;;;;;33.13;22.52;;;;;;;;;;5056397;28;20055;-76
2023/01/07 02:48:40;;;;;;;38.13;23.13;;;;;;;;;;5056175;28;20041;-76
2023/01/07 02:51:06;;;;;;;33.03;21.38;;;;;;;;;;5055379;28;20116;-76
2023/01/07 02:53:32;;;;;;;35.72;22.02;;;;;;;;;;5035409;28;20129;-76
2023/01/07 02:56:14;;;;;;;38.42;23.40;;;;;;;;;;5055067;28;20041;-76
2023/01/07 02:58:48;;;;;;;34.85;22.52;;;;;;;;;;5049816;28;20041;-76
2023/01/07 03:01:27;;;;;;;33.42;22.75;;;;;;;;;;5056433;28;20107;-76
2023/01/07 03:03:59;;;;;;;32.58;21.85;;;;;;;;;;5055921;28;20045;-76
2023/01/07 03:06:43;;;;;;;32.08;21.83;;;;;;;;;;5053125;28;20120;-76
2023/01/07 03:09:10;;;;;;;32.72;22.73;;;;;;;;;;5036355;28;20038;-75
2023/01/07 03:11:44;;;;;;;35.10;22.35;;;;;;;;;;5053485;28;20399;-75
2023/01/07 03:14:22;;;;;;;32.38;21.83;;;;;;;;;;5043930;28;20061;-76
2023/01/07 03:16:51;;;;;;;30.65;20.23;;;;;;;;;;5018146;28;20566;-76
2023/01/07 03:19:19;;;;;;;29.40;20.50;;;;;;;;;;5035713;28;20040;-76
2023/01/07 03:21:47;;;;;;;29.40;21.13;;;;;;;;;;5040073;28;20068;-76
2023/01/07 03:24:13;;;;;;;29.52;20.15;;;;;;;;;;5055507;28;20434;-76
2023/01/07 03:26:41;;;;;;;27.65;18.17;;;;;;;;;;5055406;28;20045;-76
2023/01/07 03:29:10;;;;;;;27.20;18.25;;;;;;;;;;5055665;28;20041;-76
2023/01/07 03:31:37;;;;;;;25.67;18.05;;;;;;;;;;5055283;28;20041;-76
2023/01/07 03:34:07;;;;;;;28.65;18.33;;;;;;;;;;5037527;28;20040;-76
2023/01/07 03:36:36;;;;;;;27.98;17.67;;;;;;;;;;5037639;28;20051;-76
2023/01/07 03:39:04;;;;;;;24.75;17.23;;;;;;;;;;5035520;28;20073;-76
2023/01/07 03:44:14;;;;;;;23.73;15.73;;;;;;;;;;5055544;28;20488;-76
2023/01/07 03:46:40;;;;;;;24.98;16.85;;;;;;;;;;5055344;28;20123;-76
2023/01/07 03:49:07;;;;;;;25.50;16.33;;;;;;;;;;5055259;28;20049;-76
2023/01/07 03:51:33;;;;;;;21.80;15.30;;;;;;;;;;5044371;28;20048;-76
2023/01/07 03:53:59;;;;;;;22.60;15.85;;;;;;;;;;5038758;28;20072;-76
2023/01/07 03:56:25;;;;;;;22.60;15.82;;;;;;;;;;5055152;28;20130;-76
2023/01/07 03:58:51;;;;;;;23.85;15.57;;;;;;;;;;5054258;28;20056;-76
2023/01/07 04:01:17;;;;;;;20.27;15.35;;;;;;;;;;5054945;28;20048;-76
2023/01/07 04:03:43;;;;;;;22.00;15.55;;;;;;;;;;5054624;28;20045;-76
2023/01/07 04:06:12;;;;;;;22.83;15.63;;;;;;;;;;5036167;28;20388;-76
2023/01/07 04:08:38;;;;;;;21.10;15.20;;;;;;;;;;5037821;28;20119;-76
2023/01/07 04:11:04;;;;;;;19.70;13.80;;;;;;;;;;5033788;28;20054;-76
2023/01/07 04:13:30;;;;;;;21.60;14.68;;;;;;;;;;5033207;28;20579;-76
2023/01/07 04:15:56;;;;;;;19.40;14.63;;;;;;;;;;5033757;28;20064;-76
2023/01/07 04:18:22;;;;;;;21.02;15.13;;;;;;;;;;5042295;28;20055;-76
2023/01/07 04:20:48;;;;;;;22.23;15.15;;;;;;;;;;5052600;28;20075;-76
2023/01/07 04:23:15;;;;;;;18.85;14.30;;;;;;;;;;5054167;28;20045;-76
2023/01/07 04:25:41;;;;;;;20.55;14.98;;;;;;;;;;5054515;28;20084;-76
2023/01/07 04:28:07;;;;;;;21.42;15.00;;;;;;;;;;5054553;28;20036;-76
2023/01/07 04:30:34;;;;;;;20.88;14.70;;;;;;;;;;5054448;28;20058;-76
2023/01/07 04:33:00;;;;;;;21.30;15.07;;;;;;;;;;5054092;28;21566;-76
2023/01/07 04:35:26;;;;;;;20.48;14.80;;;;;;;;;;5053076;28;20045;-76
2023/01/07 04:37:52;;;;;;;21.05;16.58;;;;;;;;;;5054458;28;20052;-76
2023/01/07 04:40:18;;;;;;;23.58;15.40;;;;;;;;;;5054279;28;20041;-76
2023/01/07 04:42:44;;;;;;;25.25;16.00;;;;;;;;;;5054289;28;20048;-76
2023/01/07 04:45:10;;;;;;;22.52;14.77;;;;;;;;;;5054199;28;20048;-76
2023/01/07 04:47:36;;;;;;;21.00;13.73;;;;;;;;;;5032806;28;20052;-76
2023/01/07 04:50:02;;;;;;;21.83;15.82;;;;;;;;;;5034883;28;20041;-76
2023/01/07 04:52:28;;;;;;;21.05;15.18;;;;;;;;;;5051989;28;20049;-76
2023/01/07 04:54:54;;;;;;;21.70;14.93;;;;;;;;;;5036179;28;20128;-76
2023/01/07 04:57:20;;;;;;;23.48;16.35;;;;;;;;;;5053977;28;20174;-76
2023/01/07 04:59:46;;;;;;;23.70;16.42;;;;;;;;;;5054408;28;20128;-76
2023/01/07 05:02:12;;;;;;;23.73;16.92;;;;;;;;;;5054018;28;20140;-76
2023/01/07 05:04:38;;;;;;;24.00;16.65;;;;;;;;;;5052673;28;20049;-76
2023/01/07 05:07:04;;;;;;;26.20;17.85;;;;;;;;;;5053107;28;20111;-76
2023/01/07 05:09:31;;;;;;;24.63;17.52;;;;;;;;;;5053066;28;20049;-76
2023/01/07 05:11:57;;;;;;;24.02;17.40;;;;;;;;;;5053248;28;20084;-76
2023/01/07 05:14:23;;;;;;;26.95;17.73;;;;;;;;;;5053487;28;20112;-76
2023/01/07 05:16:49;;;;;;;24.73;18.08;;;;;;;;;;5053203;28;20049;-76
2023/01/07 05:19:15;;;;;;;27.73;18.73;;;;;;;;;;5038841;28;20047;-76
2023/01/07 05:21:41;;;;;;;26.27;18.50;;;;;;;;;;5034077;28;20102;-76
2023/01/07 05:24:07;;;;;;;24.60;17.38;;;;;;;;;;5033666;28;20124;-76
2023/01/07 05:26:33;;;;;;;25.40;17.55;;;;;;;;;;5045424;28;20080;-76
2023/01/07 05:28:59;;;;;;;26.23;17.83;;;;;;;;;;5056589;28;20052;-76
2023/01/07 05:31:25;;;;;;;28.08;18.48;;;;;;;;;;5054171;28;20048;-76
2023/01/07 05:33:51;;;;;;;28.95;19.10;;;;;;;;;;5047172;28;20052;-76
2023/01/07 05:36:17;;;;;;;25.75;18.15;;;;;;;;;;5053539;28;20132;-76
2023/01/07 05:38:44;;;;;;;25.05;17.02;;;;;;;;;;5053007;28;20471;-76
2023/01/07 05:41:10;;;;;;;26.05;17.25;;;;;;;;;;5053081;28;20076;-76
2023/01/07 05:43:36;;;;;;;26.02;18.02;;;;;;;;;;5053552;28;20110;-76
2023/01/07 05:46:02;;;;;;;26.92;17.83;;;;;;;;;;5053311;28;20550;-76
2023/01/07 05:48:28;;;;;;;25.70;17.83;;;;;;;;;;5041738;28;20091;-76
2023/01/07 05:50:54;;;;;;;26.63;16.40;;;;;;;;;;5033617;28;20041;-76
2023/01/07 05:53:20;;;;;;;28.88;18.75;;;;;;;;;;5048261;28;20080;-76
2023/01/07 05:55:46;;;;;;;24.35;16.85;;;;;;;;;;5053463;28;20044;-76
2023/01/07 05:58:13;;;;;;;26.30;18.02;;;;;;;;;;5053376;28;20069;-76
2023/01/07 06:00:39;;;;;;;25.88;17.13;;;;;;;;;;5053129;28;20074;-76
2023/01/07 06:03:05;;;;;;;24.98;17.17;;;;;;;;;;5048229;28;20132;-76
2023/01/07 06:05:31;;;;;;;27.05;18.15;;;;;;;;;;5035508;28;20041;-76
2023/01/07 06:07:57;;;;;;;25.08;17.60;;;;;;;;;;5052863;28;20082;-76
2023/01/07 06:10:23;;;;;;;28.08;16.40;;;;;;;;;;5052891;28;20095;-76
2023/01/07 06:12:50;;;;;;;24.27;17.65;;;;;;;;;;5052784;28;20483;-76
2023/01/07 06:15:16;;;;;;;29.92;18.33;;;;;;;;;;5052773;28;20487;-76
2023/01/07 06:17:42;;;;;;;24.42;16.77;;;;;;;;;;5051762;28;20037;-76
2023/01/07 06:20:08;;;;;;;26.73;16.27;;;;;;;;;;5052747;28;20037;-76
2023/01/07 06:22:35;;;;;;;23.88;16.65;;;;;;;;;;5052989;28;20060;-76
2023/01/07 06:25:01;;;;;;;26.65;17.17;;;;;;;;;;5052995;28;20056;-76
2023/01/07 06:27:27;;;;;;;24.70;17.58;;;;;;;;;;5055082;28;20037;-76
2023/01/07 06:29:53;;;;;;;24.80;17.77;;;;;;;;;;5056733;28;20048;-76
2023/01/07 06:32:19;;;;;;;22.85;16.33;;;;;;;;;;5047045;28;20383;-77
2023/01/07 06:34:45;;;;;;;23.58;16.50;;;;;;;;;;5056633;28;20041;-76
2023/01/07 06:37:13;;;;;;;25.38;17.42;;;;;;;;;;5056386;28;20052;-76
2023/01/07 06:39:39;;;;;;;27.02;18.17;;;;;;;;;;5055487;28;20055;-76
2023/01/07 06:42:05;;;;;;;25.63;16.40;;;;;;;;;;5056625;28;20048;-76
2023/01/07 06:44:31;;;;;;;26.35;16.05;;;;;;;;;;5056719;28;20122;-76
2023/01/07 06:46:57;;;;;;;25.10;15.55;;;;;;;;;;5039337;28;20379;-76
2023/01/07 06:49:23;;;;;;;24.77;16.70;;;;;;;;;;5036502;28;20064;-76
2023/01/07 06:51:49;;;;;;;25.88;15.68;;;;;;;;;;5042182;28;20037;-76
2023/01/07 06:54:15;;;;;;;23.75;16.45;;;;;;;;;;5055727;28;20083;-76
2023/01/07 06:56:42;;;;;;;25.42;16.70;;;;;;;;;;5056396;28;20041;-76
2023/01/07 06:59:08;;;;;;;23.67;15.38;;;;;;;;;;5056406;28;20067;-76
2023/01/07 07:01:34;;;;;;;24.33;16.25;;;;;;;;;;5056975;28;20071;-76
2023/01/07 07:04:00;;;;;;;24.52;15.48;;;;;;;;;;5018755;28;20045;-76
2023/01/07 07:06:26;;;;;;;21.10;15.40;;;;;;;;;;5040068;28;20060;-76
2023/01/07 07:08:52;;;;;;;21.02;14.95;;;;;;;;;;5055324;28;20041;-76
2023/01/07 07:11:18;;;;;;;23.75;15.45;;;;;;;;;;5056440;28;20068;-76
2023/01/07 07:13:44;;;;;;;25.33;14.95;;;;;;;;;;5037996;28;20053;-77
2023/01/07 07:16:10;;;;;;;24.67;15.15;;;;;;;;;;5057662;28;20049;-76
2023/01/07 07:18:36;;;;;;;23.00;15.05;;;;;;;;;;5041420;28;20045;-77
2023/01/07 07:21:02;;;;;;;22.00;15.13;;;;;;;;;;5055900;28;20130;-79
2023/01/07 07:23:28;;;;;;;22.48;14.27;;;;;;;;;;5055529;28;20049;-77
2023/01/07 07:25:54;;;;;;;22.80;14.60;;;;;;;;;;5053435;28;20538;-77
2023/01/07 07:28:20;;;;;;;20.73;14.77;;;;;;;;;;5055466;28;20051;-77
2023/01/07 07:30:46;;;;;;;21.90;15.55;;;;;;;;;;5055274;28;20041;-76
2023/01/07 07:33:13;;;;;;;19.55;14.63;;;;;;;;;;5055140;28;20072;-76
2023/01/07 07:35:40;;;;;;;20.13;14.10;;;;;;;;;;5055454;28;20106;-77
2023/01/07 07:38:06;;;;;;;21.50;13.02;;;;;;;;;;5049654;28;20037;-77
2023/01/07 07:40:32;;;;;;;20.10;14.02;;;;;;;;;;5047846;28;20114;-80
2023/01/07 07:42:59;;;;;;;22.23;14.45;;;;;;;;;;5056440;28;20348;-77
2023/01/07 07:45:25;;;;;;;22.90;15.00;;;;;;;;;;5054779;28;20041;-77
2023/01/07 07:47:51;;;;;;;19.48;13.63;;;;;;;;;;5055565;28;20070;-76
2023/01/07 07:50:17;;;;;;;20.52;13.98;;;;;;;;;;5050805;28;20045;-76
2023/01/07 07:52:44;;;;;;;19.38;13.57;;;;;;;;;;5048953;28;20364;-77
2023/01/07 07:55:10;;;;;;;19.70;13.57;;;;;;;;;;5044278;28;20076;-76
2023/01/07 07:57:36;;;;;;;18.48;13.35;;;;;;;;;;5055066;28;20122;-77
2023/01/07 08:00:03;;;;;;;22.48;13.32;;;;;;;;;;5054948;28;20048;-77
2023/01/07 08:02:29;;;;;;;17.17;13.25;;;;;;;;;;5033729;28;20057;-77
2023/01/07 08:04:55;;;;;;;18.90;11.90;;;;;;;;;;5039495;28;20076;-77
2023/01/07 08:07:21;;;;;;;19.48;12.48;;;;;;;;;;5054330;28;20122;-77
2023/01/07 08:09:47;;;;;;;17.88;11.95;;;;;;;;;;5054410;28;20048;-77
2023/01/07 08:12:13;;;;;;;16.55;12.18;;;;;;;;;;5054313;28;20111;-77
2023/01/07 08:14:39;;;;;;;16.67;12.10;;;;;;;;;;5055057;28;20053;-77
2023/01/07 08:17:06;;;;;;;16.88;11.48;;;;;;;;;;5036869;28;20071;-76
2023/01/07 08:19:32;;;;;;;19.83;11.45;;;;;;;;;;5053435;28;20053;-76
2023/01/07 08:21:58;;;;;;;16.70;11.88;;;;;;;;;;5053935;28;20053;-77
2023/01/07 08:24:24;;;;;;;16.25;10.82;;;;;;;;;;5054602;28;20470;-77
2023/01/07 08:26:54;;;;;;;13.88;10.40;;;;;;;;;;5054902;28;20040;-77
2023/01/07 08:29:20;;;;;;;14.23;10.73;;;;;;;;;;5050685;28;20454;-77
2023/01/07 08:31:46;;;;;;;12.73;9.50;;;;;;;;;;5054312;28;20048;-78
2023/01/07 08:34:12;;;;;;;14.40;9.90;;;;;;;;;;5055748;28;20128;-78
2023/01/07 08:36:38;;;;;;;13.00;9.57;;;;;;;;;;5054329;28;20049;-76
2023/01/07 08:39:04;;;;;;;13.98;9.65;;;;;;;;;;5052619;28;20498;-77
2023/01/07 08:41:30;;;;;;;12.00;8.63;;;;;;;;;;5038971;28;20041;-76
2023/01/07 08:43:56;;;;;;;10.88;8.68;;;;;;;;;;5036838;28;20045;-76
2023/01/07 08:46:22;;;;;;;11.40;8.95;;;;;;;;;;5049047;28;20040;-76
2023/01/07 08:48:48;;;;;;;11.48;8.65;;;;;;;;;;5061883;28;20055;-77
2023/01/07 08:51:14;;;;;;;11.52;8.40;;;;;;;;;;5075950;28;20103;-78
2023/01/07 08:53:40;;;;;;;11.32;7.90;;;;;;;;;;5057814;28;20154;-77
2023/01/07 08:56:06;;;;;;;12.43;8.35;;;;;;;;;;5055109;28;20139;-77
2023/01/07 08:58:32;;;;;;;12.10;8.20;;;;;;;;;;5054150;28;20056;-77
2023/01/07 09:01:02;;;;;;;12.57;8.38;;;;;;;;;;5053958;28;20102;-77
2023/01/07 09:03:28;;;;;;;13.50;8.30;;;;;;;;;;5054330;28;20423;-78
2023/01/07 09:05:55;;;;;;;11.20;8.38;;;;;;;;;;5036428;28;20561;-78
2023/01/07 09:08:21;;;;;;;11.15;7.88;;;;;;;;;;5025042;28;20134;-77
2023/01/07 09:10:47;;;;;;;10.40;7.15;;;;;;;;;;5060660;28;20052;-77
2023/01/07 09:13:13;;;;;;;10.30;7.47;;;;;;;;;;5039505;28;20492;-77
2023/01/07 09:15:39;;;;;;;9.80;7.28;;;;;;;;;;5047997;28;20139;-77
2023/01/07 09:18:05;;;;;;;10.00;7.15;;;;;;;;;;5040290;28;20073;-77
2023/01/07 09:20:31;;;;;;;10.35;6.68;;;;;;;;;;5045530;28;20048;-77
2023/01/07 09:22:57;;;;;;;10.07;7.55;;;;;;;;;;5042188;28;20042;-77
2023/01/07 09:25:23;;;;;;;11.52;7.97;;;;;;;;;;5041225;28;20037;-77
2023/01/07 09:27:49;;;;;;;9.82;7.00;;;;;;;;;;5037230;28;20044;-77
2023/01/07 09:30:16;;;;;;;9.60;6.97;;;;;;;;;;5053224;28;20051;-77
2023/01/07 09:32:42;;;;;;;9.15;7.00;;;;;;;;;;5035761;28;20410;-77
2023/01/07 09:35:09;;;;;;;11.45;6.80;;;;;;;;;;5035796;28;20120;-77
2023/01/07 09:37:35;;;;;;;8.35;6.50;;;;;;;;;;5035580;28;20080;-77
2023/01/07 09:40:02;;;;;;;10.00;6.47;;;;;;;;;;5045420;28;20041;-77
2023/01/07 09:42:42;;;;;;;9.38;6.03;;;;;;;;;;5044612;28;20045;-77
2023/01/07 09:45:24;;;;;;;8.07;6.57;;;;;;;;;;5041281;28;20111;-76
2023/01/07 09:47:53;;;;;;;8.55;6.35;;;;;;;;;;5049509;28;20411;-77
2023/01/07 09:50:28;;;;;;;9.73;6.22;;;;;;;;;;5055813;28;20455;-78
2023/01/07 09:52:56;;;;;;;8.13;6.28;;;;;;;;;;5007357;28;20049;-79
2023/01/07 09:55:28;;;;;;;9.27;5.65;;;;;;;;;;5033551;28;20492;-78
2023/01/07 09:57:54;;;;;;;7.82;6.00;;;;;;;;;;5018766;28;20057;-78
2023/01/07 10:00:22;;;;;;;7.88;5.18;;;;;;;;;;5050590;28;20037;-78
2023/01/07 10:03:10;;;;;;;8.15;5.50;;;;;;;;;;5055315;28;20048;-78
2023/01/07 10:05:43;;;;;;;9.55;5.53;;;;;;;;;;5039312;28;20099;-78
2023/01/07 10:08:17;;;;;;;8.20;5.80;;;;;;;;;;5051370;28;20045;-78
2023/01/07 10:10:51;;;;;;;7.25;4.82;;;;;;;;;;5038434;28;20046;-78
2023/01/07 10:13:36;;;;;;;7.53;5.05;;;;;;;;;;5040940;28;20079;-78
2023/01/07 10:16:10;;;;;;;7.63;4.70;;;;;;;;;;5049071;28;20463;-78
2023/01/07 10:18:55;;;;;;;6.10;5.00;;;;;;;;;;5047147;28;20092;-79
2023/01/07 10:21:26;;;;;;;6.53;4.47;;;;;;;;;;5055068;28;20085;-80
2023/01/07 10:24:01;;;;;;;9.15;4.40;;;;;;;;;;5060160;28;20041;-79
2023/01/07 10:26:57;;;;;;;6.13;4.57;;;;;;;;;;5042137;28;20068;-78
2023/01/07 10:29:29;;;;;;;5.70;4.57;;;;;;;;;;5039425;28;20045;-81
2023/01/07 10:31:57;;;;;;;6.72;4.47;;;;;;;;;;5061665;28;20048;-82
2023/01/07 10:34:30;;;;;;;7.68;4.10;;;;;;;;;;5060006;28;20041;-81
2023/01/07 10:37:05;;;;;;;6.80;4.53;;;;;;;;;;5060731;28;20049;-78
2023/01/07 10:39:35;;;;;;;5.68;4.13;;;;;;;;;;5052591;28;20032;-80
2023/01/07 10:42:15;;;;;;;5.95;3.85;;;;;;;;;;5054975;28;20403;-78
2023/01/07 10:44:51;;;;;;;5.50;4.20;;;;;;;;;;5025765;28;20132;-78
2023/01/07 10:47:17;;;;;;;;;;;;;;;;;;5053415;28;20045;-78
2023/01/07 10:49:57;;;;;;;5.30;4.15;;;;;;;;;;5060830;28;20486;-79
2023/01/07 10:52:25;;;;;;;5.20;3.65;;;;;;;;;;5058132;28;20071;-78
2023/01/07 10:54:57;;;;;;;6.00;3.90;;;;;;;;;;5045109;28;20514;-79
2023/01/07 10:57:25;;;;;;;3.78;3.05;;;;;;;;;;5043230;28;20504;-78
2023/01/07 10:59:53;;;;;;;5.15;3.55;;;;;;;;;;5021328;28;20045;-79
2023/01/07 11:02:26;;;;;;;5.22;3.47;;;;;;;;;;5043652;28;20067;-78
2023/01/07 11:04:53;;;;;;;5.05;3.45;;;;;;;;;;5071152;28;20040;-78
2023/01/07 11:07:29;;;;;;;4.70;3.47;;;;;;;;;;5025294;28;20048;-78
2023/01/07 11:09:55;;;;;;;6.25;4.13;;;;;;;;;;5054000;28;20037;-79
2023/01/07 11:12:24;;;;;;;6.13;4.10;;;;;;;;;;5040125;28;20065;-79
2023/01/07 11:14:52;;;;;;;4.72;3.55;;;;;;;;;;5050991;28;20088;-79
2023/01/07 11:17:37;;;;;;;6.38;3.70;;;;;;;;;;5061559;28;20048;-79
2023/01/07 11:20:03;;;;;;;5.72;3.78;;;;;;;;;;5059338;28;20128;-79
2023/01/07 11:22:31;;;;;;;4.57;3.25;;;;;;;;;;5060241;28;20095;-78
2023/01/07 11:24:58;;;;;;;4.75;3.53;;;;;;;;;;5053263;28;20116;-78
2023/01/07 11:27:25;;;;;;;4.90;3.20;;;;;;;;;;5034141;28;20041;-78
2023/01/07 11:30:03;;;;;;;7.32;4.00;;;;;;;;;;5059647;28;20056;-78
2023/01/07 11:32:31;;;;;;;8.07;3.88;;;;;;;;;;5049187;28;20076;-78
2023/01/07 11:35:01;;;;;;;3.95;3.10;;;;;;;;;;5055736;28;20076;-78
2023/01/07 11:37:30;;;;;;;6.32;3.67;;;;;;;;;;5059822;28;20051;-78
2023/01/07 11:39:57;;;;;;;4.80;3.28;;;;;;;;;;5059029;28;20072;-78
2023/01/07 11:42:39;;;;;;;5.72;3.65;;;;;;;;;;5059772;28;20041;-78
2023/01/07 11:45:15;;;;;;;5.05;3.38;;;;;;;;;;5059005;28;20068;-81
2023/01/07 11:48:01;;;;;;;3.90;2.92;;;;;;;;;;5057587;28;20041;-79
2023/01/07 11:50:40;;;;;;;5.38;3.00;;;;;;;;;;5058105;28;20037;-78
2023/01/07 11:53:15;;;;;;;4.50;3.03;;;;;;;;;;5058813;28;20049;-78
2023/01/07 11:55:58;;;;;;;4.33;3.03;;;;;;;;;;5057921;28;20094;-77
2023/01/07 11:58:28;;;;;;;3.95;2.80;;;;;;;;;;5057943;28;20037;-78
2023/01/07 12:01:11;;;;;;;3.35;2.42;;;;;;;;;;5055047;28;20049;-79
2023/01/07 12:03:42;;;;;;;4.28;2.40;;;;;;;;;;5038999;28;20046;-78
2023/01/07 12:06:11;;;;;;;3.70;2.50;;;;;;;;;;5047654;28;20439;-79
2023/01/07 12:08:39;;;;;;;4.53;3.03;;;;;;;;;;5043193;28;20052;-79
2023/01/07 12:11:07;;;;;;;3.95;2.58;;;;;;;;;;5052158;28;20041;-79
2023/01/07 12:13:35;;;;;;;2.92;2.30;;;;;;;;;;5048361;28;20053;-78
2023/01/07 12:16:05;;;;;;;3.65;2.40;;;;;;;;;;5051546;28;20079;-78
2023/01/07 12:18:32;;;;;;;3.72;2.53;;;;;;;;;;5054297;28;20480;-79
2023/01/07 12:21:07;;;;;;;4.28;2.90;;;;;;;;;;5058149;28;20128;-79
2023/01/07 12:23:52;;;;;;;4.00;2.47;;;;;;;;;;5059768;28;20045;-79
2023/01/07 12:26:20;;;;;;;3.13;2.33;;;;;;;;;;5059600;28;21056;-79
2023/01/07 12:29:05;;;;;;;4.07;2.58;;;;;;;;;;5044629;28;20052;-79
2023/01/07 12:31:31;;;;;;;4.95;2.60;;;;;;;;;;5046648;28;20064;-79
2023/01/07 12:33:57;;;;;;;4.43;2.40;;;;;;;;;;5060183;28;20037;-79
2023/01/07 12:36:35;;;;;;;3.47;2.28;;;;;;;;;;5059234;28;20048;-79
2023/01/07 12:39:02;;;;;;;2.88;2.10;;;;;;;;;;5039187;28;20052;-79
2023/01/07 12:41:31;;;;;;;2.83;2.20;;;;;;;;;;5046378;28;20049;-79
2023/01/07 12:44:02;;;;;;;2.17;1.98;;;;;;;;;;5058862;28;20059;-80
2023/01/07 12:46:31;;;;;;;3.08;2.00;;;;;;;;;;5058383;28;20040;-79
2023/01/07 12:49:10;;;;;;;2.20;2.00;;;;;;;;;;5058133;28;20044;-79
2023/01/07 12:51:42;;;;;;;2.72;1.95;;;;;;;;;;5053810;28;20053;-79
2023/01/07 12:54:15;;;;;;;2.30;2.03;;;;;;;;;;5038128;28;20048;-79
2023/01/07 12:56:56;;;;;;;2.10;1.90;;;;;;;;;;5038265;28;20158;-79
2023/01/07 12:59:25;;;;;;;3.35;2.60;;;;;;;;;;5038196;28;20488;-79
2023/01/07 13:02:06;;;;;;;2.45;2.00;;;;;;;;;;5050067;28;20056;-79
2023/01/07 13:04:38;;;;;;;2.40;1.95;;;;;;;;;;5057683;28;20102;-79
2023/01/07 13:07:24;;;;;;;4.22;2.00;;;;;;;;;;5052600;28;20044;-79
2023/01/07 13:09:53;;;;;;;3.10;2.08;;;;;;;;;;5039100;28;20045;-80
2023/01/07 13:12:42;;;;;;;3.25;2.00;;;;;;;;;;5054265;28;20056;-80
2023/01/07 13:15:25;;;;;;;3.60;2.08;;;;;;;;;;5031840;28;20053;-79
2023/01/07 13:17:52;;;;;;;3.55;2.20;;;;;;;;;;5056351;28;20403;-80
2023/01/07 13:20:23;;;;;;;3.88;2.30;;;;;;;;;;5057014;28;20498;-80
2023/01/07 13:22:54;;;;;;;2.10;1.90;;;;;;;;;;5056426;28;20067;-80
2023/01/07 13:25:38;;;;;;;2.63;2.08;;;;;;;;;;5056115;28;20077;-80
2023/01/07 13:28:04;;;;;;;2.20;1.90;;;;;;;;;;5055651;28;20041;-79
2023/01/07 13:30:42;;;;;;;2.92;2.00;;;;;;;;;;5047237;28;20056;-79
2023/01/07 13:33:24;;;;;;;2.25;1.85;;;;;;;;;;5054506;28;20048;-79
2023/01/07 13:36:09;;;;;;;3.90;2.30;;;;;;;;;;5055389;28;20045;-79
2023/01/07 13:38:50;;;;;;;2.72;2.40;;;;;;;;;;5055447;28;20450;-79
2023/01/07 13:41:31;;;;;;;2.20;2.00;;;;;;;;;;5055795;28;20511;-80
2023/01/07 13:43:57;;;;;;;2.20;1.83;;;;;;;;;;5055665;28;20049;-80
2023/01/07 13:46:32;;;;;;;2.78;1.90;;;;;;;;;;5049403;28;20069;-79
2023/01/07 13:48:58;;;;;;;3.33;2.13;;;;;;;;;;5055800;28;20041;-79
2023/01/07 13:51:29;;;;;;;2.88;2.10;;;;;;;;;;5056278;28;20074;-80
2023/01/07 13:53:55;;;;;;;3.30;2.20;;;;;;;;;;5056161;28;20474;-80
2023/01/07 13:56:21;;;;;;;3.42;1.90;;;;;;;;;;5055604;28;20057;-79
2023/01/07 13:58:48;;;;;;;2.88;2.10;;;;;;;;;;5056196;28;20506;-79
2023/01/07 14:01:18;;;;;;;2.47;2.10;;;;;;;;;;5055949;28;20491;-80
2023/01/07 14:03:48;;;;;;;3.33;2.33;;;;;;;;;;5056437;28;20135;-80
2023/01/07 14:06:20;;;;;;;3.03;2.38;;;;;;;;;;5055844;28;20575;-80
2023/01/07 14:08:52;;;;;;;2.95;2.45;;;;;;;;;;5055947;28;20049;-80
2023/01/07 14:11:19;;;;;;;3.28;2.60;;;;;;;;;;5055843;28;20075;-79
2023/01/07 14:13:49;;;;;;;3.35;2.60;;;;;;;;;;5055525;28;20066;-80
2023/01/07 14:16:18;;;;;;;3.13;2.50;;;;;;;;;;5052160;28;20091;-79
2023/01/07 14:18:47;;;;;;;4.55;2.80;;;;;;;;;;5054279;28;20407;-79
2023/01/07 14:21:39;;;;;;;3.10;2.80;;;;;;;;;;5055896;28;20041;-80
2023/01/07 14:24:26;;;;;;;3.85;3.13;;;;;;;;;;5048132;28;20095;-79
2023/01/07 14:27:07;;;;;;;4.30;3.20;;;;;;;;;;5055945;28;20049;-80
2023/01/07 14:29:52;;;;;;;4.72;3.05;;;;;;;;;;5055298;28;20143;-80
2023/01/07 14:32:24;;;;;;;3.95;3.03;;;;;;;;;;5055494;28;20049;-80
2023/01/07 14:35:01;;;;;;;4.45;3.40;;;;;;;;;;5037971;28;20053;-80
2023/01/07 14:37:35;;;;;;;3.72;2.90;;;;;;;;;;5055488;28;20090;-80
2023/01/07 14:40:21;;;;;;;3.70;2.90;;;;;;;;;;5055148;28;20045;-80
2023/01/07 14:42:47;;;;;;;3.70;3.00;;;;;;;;;;5039544;28;20444;-80
2023/01/07 14:45:31;;;;;;;3.47;2.80;;;;;;;;;;5048993;28;20045;-80
2023/01/07 14:47:57;;;;;;;5.20;3.00;;;;;;;;;;5053141;28;20096;-79